createdAt,value
2023-01-21T00:02:13.258Z,97981.97
2023-01-21T00:04:39.893Z,97976.59
2023-01-21T00:07:06.973Z,97976.72
2023-01-21T00:09:33.988Z,97990.53
2023-01-21T00:12:02.917Z,98001.56
2023-01-21T00:14:30.218Z,97994.63
2023-01-21T00:16:58.219Z,98000.50
2023-01-21T00:19:25.378Z,98001.75
2023-01-21T00:21:52.089Z,98009.97
2023-01-21T00:24:18.772Z,98007.78
2023-01-21T00:26:45.402Z,98009.44
2023-01-21T00:29:12.059Z,98001.25
2023-01-21T00:31:38.939Z,97997.72
2023-01-21T00:34:05.606Z,98015.91
2023-01-21T00:36:32.297Z,98023.09
2023-01-21T00:38:59.640Z,98030.66
2023-01-21T00:41:26.372Z,98031.97
2023-01-21T00:43:53.153Z,98046.53
2023-01-21T00:46:19.889Z,98042.72
2023-01-21T00:48:46.633Z,98055.75
2023-01-21T00:51:13.352Z,98060.34
2023-01-21T00:53:42.078Z,98065.88
2023-01-21T00:56:10.717Z,98071.25
2023-01-21T00:58:37.668Z,98072.53
2023-01-21T01:01:12.737Z,98080.91
2023-01-21T01:03:39.854Z,98090.16
2023-01-21T01:06:14.898Z,98099.66
2023-01-21T01:08:42.269Z,98109.44
2023-01-21T01:11:08.880Z,98093.75
2023-01-21T01:13:35.667Z,98111.19
2023-01-21T01:16:02.738Z,98110.72
2023-01-21T01:18:30.426Z,98118.25
2023-01-21T01:20:57.064Z,98127.06
2023-01-21T01:23:23.700Z,98140.81
2023-01-21T01:26:04.313Z,98136.25
2023-01-21T01:28:31.058Z,98144.66
2023-01-21T01:30:58.043Z,98151.97
2023-01-21T01:33:24.920Z,98154.00
2023-01-21T01:35:51.555Z,98159.97
2023-01-21T01:38:22.540Z,98160.28
2023-01-21T01:40:50.395Z,98163.19
2023-01-21T01:43:18.966Z,98166.88
2023-01-21T01:45:45.581Z,98173.56
2023-01-21T01:48:17.761Z,98185.66
2023-01-21T01:50:44.557Z,98191.97
2023-01-21T01:53:11.197Z,98189.66
2023-01-21T01:55:37.837Z,98196.00
2023-01-21T01:58:06.760Z,98202.81
2023-01-21T02:00:33.363Z,98207.47
2023-01-21T02:03:18.662Z,98207.06
2023-01-21T02:05:45.324Z,98214.09
2023-01-21T02:08:12.093Z,98227.16
2023-01-21T02:10:38.734Z,98236.03
2023-01-21T02:13:05.340Z,98240.59
2023-01-21T02:15:55.370Z,98257.44
2023-01-21T02:18:35.325Z,98252.44
2023-01-21T02:21:26.475Z,98259.84
2023-01-21T02:24:06.907Z,98264.75
2023-01-21T02:26:51.333Z,98270.59
2023-01-21T02:29:26.798Z,98272.69
2023-01-21T02:32:19.675Z,98271.09
2023-01-21T02:34:48.807Z,98272.94
2023-01-21T02:38:07.011Z,98272.44
2023-01-21T02:40:38.354Z,98281.41
2023-01-21T02:43:25.089Z,98284.25
2023-01-21T02:46:03.844Z,98287.06
2023-01-21T02:48:40.756Z,98286.63
2023-01-21T02:51:07.385Z,98292.03
2023-01-21T02:53:35.628Z,98298.03
2023-01-21T02:56:23.619Z,98315.88
2023-01-21T02:58:53.998Z,98321.47
2023-01-21T03:01:54.578Z,98334.53
2023-01-21T03:04:46.250Z,98336.94
2023-01-21T03:07:18.902Z,98338.00
2023-01-21T03:09:45.496Z,98329.97
2023-01-21T03:16:47.229Z,98336.34
2023-01-21T03:19:13.896Z,98341.84
2023-01-21T03:21:40.503Z,98339.09
2023-01-21T03:24:07.135Z,98340.97
2023-01-21T03:26:36.727Z,98334.78
2023-01-21T03:29:06.346Z,98344.47
2023-01-21T03:31:33.878Z,98333.44
2023-01-21T03:34:02.363Z,98337.50
2023-01-21T03:36:40.960Z,98339.47
2023-01-21T03:39:13.217Z,98343.84
2023-01-21T03:41:39.816Z,98344.78
2023-01-21T03:44:06.459Z,98353.28
2023-01-21T03:46:41.516Z,98358.44
2023-01-21T03:49:20.802Z,98361.13
2023-01-21T03:51:49.953Z,98373.41
2023-01-21T03:54:16.524Z,98369.75
2023-01-21T03:56:43.131Z,98364.88
2023-01-21T03:59:09.851Z,98370.56
2023-01-21T04:01:36.463Z,98373.28
2023-01-21T04:04:03.074Z,98366.94
2023-01-21T04:06:29.663Z,98371.66
2023-01-21T04:08:56.299Z,98375.59
2023-01-21T04:11:22.897Z,98385.91
2023-01-21T04:13:49.538Z,98381.56
2023-01-21T04:16:16.157Z,98394.97
2023-01-21T04:18:42.766Z,98392.34
2023-01-21T04:21:09.357Z,98391.38
2023-01-21T04:23:35.966Z,98390.00
2023-01-21T04:26:02.544Z,98391.31
2023-01-21T04:28:29.153Z,98404.25
2023-01-21T04:30:55.773Z,98412.22
2023-01-21T04:33:22.575Z,98406.59
2023-01-21T04:35:49.160Z,98414.44
2023-01-21T04:38:15.874Z,98414.44
2023-01-21T04:40:42.601Z,98414.44
2023-01-21T04:43:09.238Z,98415.50
2023-01-21T04:45:35.885Z,98410.44
2023-01-21T04:48:02.552Z,98421.72
2023-01-21T04:50:29.147Z,98422.84
2023-01-21T04:52:55.752Z,98423.44
2023-01-21T04:55:24.208Z,98426.88
2023-01-21T04:57:52.036Z,98413.38
2023-01-21T05:00:19.024Z,98412.00
2023-01-21T05:02:45.792Z,98426.25
2023-01-21T05:05:12.374Z,98427.16
2023-01-21T05:07:38.998Z,98426.78
2023-01-21T05:10:05.785Z,98425.03
2023-01-21T05:12:32.429Z,98431.25
2023-01-21T05:14:59.056Z,98438.84
2023-01-21T05:17:25.743Z,98433.69
2023-01-21T05:19:52.296Z,98440.28
2023-01-21T05:22:18.901Z,98448.09
2023-01-21T05:24:45.486Z,98451.59
2023-01-21T05:27:12.100Z,98464.25
2023-01-21T05:29:38.661Z,98452.31
2023-01-21T05:32:05.402Z,98477.38
2023-01-21T05:34:32.065Z,98471.66
2023-01-21T05:36:58.663Z,98477.94
2023-01-21T05:39:25.404Z,98478.69
2023-01-21T05:41:52.021Z,98478.53
2023-01-21T05:44:18.625Z,98483.81
2023-01-21T05:46:45.268Z,98494.28
2023-01-21T05:49:11.880Z,98499.13
2023-01-21T05:51:38.486Z,98499.44
2023-01-21T05:54:05.115Z,98494.13
2023-01-21T05:56:31.796Z,98512.22
2023-01-21T05:58:58.388Z,98518.16
2023-01-21T06:01:25.045Z,98521.28
2023-01-21T06:03:51.706Z,98528.81
2023-01-21T06:06:18.367Z,98527.00
2023-01-21T06:08:44.962Z,98539.31
2023-01-21T06:11:11.552Z,98525.28
2023-01-21T06:13:38.147Z,98537.75
2023-01-21T06:16:05.071Z,98528.66
2023-01-21T06:18:31.677Z,98541.28
2023-01-21T06:21:01.334Z,98547.97
2023-01-21T06:23:27.992Z,98551.69
2023-01-21T06:25:58.553Z,98551.59
2023-01-21T06:28:25.175Z,98553.53
2023-01-21T06:30:51.835Z,98559.72
2023-01-21T06:33:18.523Z,98568.22
2023-01-21T06:35:45.121Z,98571.69
2023-01-21T06:38:11.735Z,98565.94
2023-01-21T06:40:38.427Z,98573.91
2023-01-21T06:43:05.051Z,98573.06
2023-01-21T06:45:31.733Z,98581.06
2023-01-21T06:47:58.349Z,98582.94
2023-01-21T06:50:25.027Z,98581.69
2023-01-21T06:52:51.632Z,98587.69
2023-01-21T06:55:18.257Z,98590.47
2023-01-21T06:57:44.935Z,98594.56
2023-01-21T07:00:12.258Z,98605.84
2023-01-21T07:02:42.129Z,98601.47
2023-01-21T07:05:08.994Z,98611.50
2023-01-21T07:07:35.970Z,98625.16
2023-01-21T07:10:02.630Z,98617.75
2023-01-21T07:12:30.339Z,98628.63
2023-01-21T07:14:56.941Z,98619.41
2023-01-21T07:17:23.700Z,98633.69
2023-01-21T07:19:50.321Z,98634.09
2023-01-21T07:22:16.923Z,98635.75
2023-01-21T07:24:43.515Z,98628.19
2023-01-21T07:27:10.768Z,98637.53
2023-01-21T07:29:37.648Z,98632.44
2023-01-21T07:32:04.767Z,98637.31
2023-01-21T07:34:31.399Z,98646.56
2023-01-21T07:36:57.991Z,98648.25
2023-01-21T07:39:24.565Z,98646.72
2023-01-21T07:41:51.153Z,98651.13
2023-01-21T07:44:17.795Z,98665.72
2023-01-21T07:46:44.474Z,98660.38
2023-01-21T07:49:12.936Z,98658.00
2023-01-21T07:51:39.521Z,98666.09
2023-01-21T07:54:06.109Z,98671.13
2023-01-21T07:56:32.700Z,98670.13
2023-01-21T07:58:59.333Z,98666.38
2023-01-21T08:01:30.871Z,98671.13
2023-01-21T08:03:58.263Z,98684.94
2023-01-21T08:06:25.009Z,98679.38
2023-01-21T08:08:51.590Z,98688.53
2023-01-21T08:11:18.201Z,98680.03
2023-01-21T08:13:44.811Z,98688.66
2023-01-21T08:16:13.992Z,98688.91
2023-01-21T08:18:40.616Z,98682.59
2023-01-21T08:21:07.188Z,98679.41
2023-01-21T08:23:34.692Z,98683.91
2023-01-21T08:26:04.591Z,98690.47
2023-01-21T08:28:31.287Z,98684.06
2023-01-21T08:31:08.133Z,98693.28
2023-01-21T08:33:34.883Z,98698.72
2023-01-21T08:36:06.163Z,98694.31
2023-01-21T08:38:33.416Z,98693.78
2023-01-21T08:41:00.010Z,98697.41
2023-01-21T08:43:26.717Z,98702.06
2023-01-21T08:45:55.660Z,98696.94
2023-01-21T08:48:22.370Z,98704.59
2023-01-21T08:50:48.996Z,98706.19
2023-01-21T08:53:15.610Z,98702.94
2023-01-21T08:55:42.333Z,98708.75
2023-01-21T08:58:11.597Z,98720.31
2023-01-21T09:00:38.290Z,98708.75
2023-01-21T09:03:04.955Z,98726.31
2023-01-21T09:05:31.551Z,98718.38
2023-01-21T09:07:58.431Z,98711.94
2023-01-21T09:10:43.801Z,98711.72
2023-01-21T09:13:10.432Z,98704.31
2023-01-21T09:15:40.939Z,98706.78
2023-01-21T09:18:07.546Z,98739.44
2023-01-21T09:20:34.278Z,98727.31
2023-01-21T09:23:01.007Z,98722.50
2023-01-21T09:25:27.777Z,98725.03
2023-01-21T09:27:54.393Z,98736.38
2023-01-21T09:30:21.061Z,98741.53
2023-01-21T09:32:47.663Z,98744.63
2023-01-21T09:35:14.518Z,98744.19
2023-01-21T09:37:41.568Z,98748.03
2023-01-21T09:40:14.037Z,98746.16
2023-01-21T09:42:42.661Z,98753.94
2023-01-21T09:45:09.609Z,98746.00
2023-01-21T09:47:38.270Z,98752.16
2023-01-21T09:50:11.006Z,98751.50
2023-01-21T09:52:44.367Z,98745.72
2023-01-21T09:55:20.566Z,98752.00
2023-01-21T09:57:59.135Z,98749.84
2023-01-21T10:00:39.066Z,98746.72
2023-01-21T10:03:08.603Z,98747.63
2023-01-21T10:06:22.675Z,98752.63
2023-01-21T10:09:17.064Z,98752.91
2023-01-21T10:11:48.623Z,98746.00
2023-01-21T10:14:34.054Z,98760.94
2023-01-21T10:17:26.495Z,98758.81
2023-01-21T10:20:05.597Z,98748.25
2023-01-21T10:22:32.181Z,98759.53
2023-01-21T10:25:13.726Z,98755.41
2023-01-21T10:27:40.345Z,98749.19
2023-01-21T10:30:28.700Z,98747.47
2023-01-21T10:32:55.540Z,98741.75
2023-01-21T10:35:50.076Z,98754.19
2023-01-21T10:38:47.106Z,98743.09
2023-01-21T10:41:26.885Z,98747.78
2023-01-21T10:44:05.752Z,98745.47
2023-01-21T10:46:41.141Z,98756.16
2023-01-21T10:49:25.467Z,98742.63
2023-01-21T10:51:58.920Z,98748.78
2023-01-21T10:54:42.083Z,98744.78
2023-01-21T10:57:23.235Z,98751.75
2023-01-21T10:59:49.839Z,98759.84
2023-01-21T11:02:23.530Z,98743.53
2023-01-21T11:04:50.107Z,98735.66
2023-01-21T11:07:18.287Z,98736.50
2023-01-21T11:09:46.188Z,98735.75
2023-01-21T11:12:16.551Z,98734.47
2023-01-21T11:14:46.758Z,98734.09
2023-01-21T11:17:13.998Z,98745.50
2023-01-21T11:19:40.629Z,98730.59
2023-01-21T11:22:12.936Z,98733.13
2023-01-21T11:24:44.253Z,98748.00
2023-01-21T11:27:31.361Z,98730.88
2023-01-21T11:29:57.977Z,98729.34
2023-01-21T11:32:25.868Z,98731.09
2023-01-21T11:34:58.297Z,98715.84
2023-01-21T11:37:26.167Z,98720.44
2023-01-21T11:40:01.042Z,98721.00
2023-01-21T11:42:27.700Z,98721.56
2023-01-21T11:45:05.183Z,98726.44
2023-01-21T11:47:48.182Z,98725.00
2023-01-21T11:50:44.001Z,98712.03
2023-01-21T11:53:14.533Z,98725.44
2023-01-21T11:55:50.912Z,98710.00
2023-01-21T11:58:29.998Z,98706.59
2023-01-21T12:01:00.817Z,98708.72
2023-01-21T12:03:36.751Z,98701.88
2023-01-21T12:06:03.628Z,98717.72
2023-01-21T12:08:31.290Z,98703.97
2023-01-21T12:11:02.021Z,98700.38
2023-01-21T12:13:47.296Z,98701.34
2023-01-21T12:16:23.132Z,98687.78
2023-01-21T12:19:16.286Z,98687.31
2023-01-21T12:21:45.868Z,98691.88
2023-01-21T12:24:40.406Z,98690.50
2023-01-21T12:27:38.102Z,98695.38
2023-01-21T12:30:32.407Z,98690.06
2023-01-21T12:33:12.841Z,98679.28
2023-01-21T12:35:51.853Z,98680.09
2023-01-21T12:38:36.639Z,98676.53
2023-01-21T12:41:10.832Z,98679.66
2023-01-21T12:43:42.495Z,98681.91
2023-01-21T12:46:32.626Z,98669.94
2023-01-21T12:49:07.447Z,98674.88
2023-01-21T12:51:39.922Z,98684.97
2023-01-21T12:54:24.650Z,98675.19
2023-01-21T12:56:57.180Z,98667.75
2023-01-21T12:59:25.300Z,98669.06
2023-01-21T13:02:05.580Z,98660.75
2023-01-21T13:04:54.323Z,98661.19
2023-01-21T13:07:27.200Z,98654.06
2023-01-21T13:10:00.406Z,98649.78
2023-01-21T13:12:27.495Z,98661.09
2023-01-21T13:15:03.163Z,98648.81
2023-01-21T13:17:32.544Z,98659.06
2023-01-21T13:19:59.389Z,98651.91
2023-01-21T13:22:32.005Z,98652.94
2023-01-21T13:25:18.558Z,98653.34
2023-01-21T13:27:59.055Z,98657.66
2023-01-21T13:30:36.713Z,98656.50
2023-01-21T13:33:29.331Z,98653.06
2023-01-21T13:36:18.449Z,98653.59
2023-01-21T13:39:28.275Z,98646.91
2023-01-21T13:42:07.137Z,98647.38
2023-01-21T13:44:39.632Z,98638.72
2023-01-21T13:47:44.562Z,98645.19
2023-01-21T13:50:20.253Z,98644.44
2023-01-21T13:52:50.517Z,98642.09
2023-01-21T13:55:39.254Z,98646.56
2023-01-21T13:58:09.299Z,98638.63
2023-01-21T14:00:44.914Z,98635.44
2023-01-21T14:03:37.521Z,98636.09
2023-01-21T14:06:24.590Z,98636.00
2023-01-21T14:08:52.836Z,98640.94
2023-01-21T14:11:34.507Z,98636.22
2023-01-21T14:14:24.274Z,98630.78
2023-01-21T14:17:18.962Z,98617.41
2023-01-21T14:20:04.565Z,98615.75
2023-01-21T14:22:56.002Z,98608.28
2023-01-21T14:25:46.537Z,98596.63
2023-01-21T14:28:49.765Z,98606.25
2023-01-21T14:31:22.336Z,98591.66
2023-01-21T14:33:59.510Z,98592.31
2023-01-21T14:37:14.102Z,98587.16
2023-01-21T14:39:43.685Z,98575.50
2023-01-21T14:42:12.571Z,98569.44
2023-01-21T14:44:59.228Z,98572.63
2023-01-21T14:47:28.800Z,98576.38
2023-01-21T14:49:55.842Z,98565.63
2023-01-21T14:52:32.828Z,98567.97
2023-01-21T14:54:59.661Z,98574.25
2023-01-21T14:57:29.703Z,98574.28
2023-01-21T15:00:29.566Z,98571.34
2023-01-21T15:03:09.177Z,98570.00
2023-01-21T15:05:36.517Z,98579.84
2023-01-21T15:08:06.399Z,98573.75
2023-01-21T15:10:37.600Z,98575.69
2023-01-21T15:13:28.463Z,98574.69
2023-01-21T15:16:05.792Z,98575.69
2023-01-21T15:18:48.540Z,98567.41
2023-01-21T15:21:43.319Z,98565.84
2023-01-21T15:24:35.853Z,98561.59
2023-01-21T15:27:23.637Z,98563.00
2023-01-21T15:29:56.842Z,98562.13
2023-01-21T15:32:36.127Z,98552.16
2023-01-21T15:35:23.293Z,98556.41
2023-01-21T15:37:59.348Z,98550.63
2023-01-21T15:40:27.737Z,98548.13
2023-01-21T15:42:55.272Z,98546.69
2023-01-21T15:45:43.457Z,98546.19
2023-01-21T15:48:33.123Z,98555.38
2023-01-21T15:51:25.408Z,98547.03
2023-01-21T15:54:07.101Z,98542.59
2023-01-21T15:56:56.118Z,98539.03
2023-01-21T15:59:28.666Z,98535.34
2023-01-21T16:02:15.611Z,98539.84
2023-01-21T16:05:11.947Z,98535.25
2023-01-21T16:07:53.938Z,98521.31
2023-01-21T16:10:23.638Z,98531.34
2023-01-21T16:13:18.448Z,98534.09
2023-01-21T16:16:12.752Z,98536.34
2023-01-21T16:18:59.355Z,98535.34
2023-01-21T16:21:35.138Z,98521.00
2023-01-21T16:24:05.657Z,98528.34
2023-01-21T16:26:33.192Z,98523.69
2023-01-21T16:28:59.940Z,98514.06
2023-01-21T16:31:26.721Z,98515.34
2023-01-21T16:33:54.033Z,98517.09
2023-01-21T16:36:20.665Z,98512.34
2023-01-21T16:38:47.360Z,98509.16
2023-01-21T16:41:13.865Z,98514.34
2023-01-21T16:43:48.745Z,98509.50
2023-01-21T16:46:16.823Z,98515.34
2023-01-21T16:48:43.459Z,98510.69
2023-01-21T16:51:23.768Z,98503.34
2023-01-21T16:53:54.046Z,98517.03
2023-01-21T16:56:28.608Z,98514.16
2023-01-21T16:58:56.208Z,98509.41
2023-01-21T17:01:24.019Z,98518.09
2023-01-21T17:03:50.643Z,98501.84
2023-01-21T17:06:28.457Z,98512.19
2023-01-21T17:08:58.753Z,98508.94
2023-01-21T17:11:25.524Z,98511.50
2023-01-21T17:13:52.135Z,98507.69
2023-01-21T17:16:29.669Z,98513.66
2023-01-21T17:19:00.425Z,98522.69
2023-01-21T17:21:48.189Z,98512.50
2023-01-21T17:24:22.029Z,98518.19
2023-01-21T17:26:50.249Z,98527.50
2023-01-21T17:29:28.282Z,98520.94
2023-01-21T17:31:56.534Z,98523.94
2023-01-21T17:34:30.537Z,98523.03
2023-01-21T17:36:57.328Z,98528.19
2023-01-21T17:39:49.140Z,98532.69
2023-01-21T17:42:20.719Z,98544.28
2023-01-21T17:44:54.801Z,98538.22
2023-01-21T17:47:29.340Z,98545.19
2023-01-21T17:50:21.448Z,98535.94
2023-01-21T17:52:57.126Z,98529.28
2023-01-21T17:55:26.750Z,98525.03
2023-01-21T17:57:54.533Z,98531.88
2023-01-21T18:00:38.060Z,98536.53
2023-01-21T18:03:04.837Z,98537.03
2023-01-21T18:05:31.449Z,98533.84
2023-01-21T18:07:58.197Z,98528.19
2023-01-21T18:10:26.458Z,98538.22
2023-01-21T18:12:54.523Z,98540.13
2023-01-21T18:15:21.179Z,98530.44
2023-01-21T18:17:49.553Z,98536.78
2023-01-21T18:20:26.283Z,98538.22
2023-01-21T18:22:53.398Z,98536.88
2023-01-21T18:25:20.238Z,98535.69
2023-01-21T18:27:51.743Z,98533.53
2023-01-21T18:30:19.643Z,98541.72
2023-01-21T18:32:46.395Z,98535.03
2023-01-21T18:35:19.899Z,98542.47
2023-01-21T18:37:47.023Z,98546.72
2023-01-21T18:40:18.433Z,98549.88
2023-01-21T18:42:45.895Z,98548.19
2023-01-21T18:45:30.735Z,98550.78
2023-01-21T18:47:57.591Z,98551.69
2023-01-21T18:50:25.693Z,98550.97
2023-01-21T18:52:52.564Z,98549.53
2023-01-21T18:55:20.397Z,98550.03
2023-01-21T18:57:48.496Z,98550.88
2023-01-21T19:00:22.811Z,98549.13
2023-01-21T19:02:50.469Z,98544.44
2023-01-21T19:05:17.331Z,98538.72
2023-01-21T19:07:44.003Z,98543.69
2023-01-21T19:10:13.603Z,98545.53
2023-01-21T19:12:40.306Z,98550.34
2023-01-21T19:15:10.296Z,98538.53
2023-01-21T19:17:38.305Z,98539.44
2023-01-21T19:20:05.250Z,98538.72
2023-01-21T19:22:31.904Z,98548.56
2023-01-21T19:24:58.505Z,98538.53
2023-01-21T19:27:33.405Z,98543.69
2023-01-21T19:29:59.980Z,98542.03
2023-01-21T19:32:26.599Z,98542.88
2023-01-21T19:34:53.256Z,98541.84
2023-01-21T19:37:21.487Z,98540.88
2023-01-21T19:39:48.084Z,98541.13
2023-01-21T19:42:15.417Z,98546.28
2023-01-21T19:44:42.261Z,98552.56
2023-01-21T19:47:16.410Z,98544.78
2023-01-21T19:49:43.085Z,98556.88
2023-01-21T19:52:11.699Z,98561.72
2023-01-21T19:54:38.280Z,98569.97
2023-01-21T19:57:04.880Z,98573.13
2023-01-21T19:59:31.579Z,98563.38
2023-01-21T20:01:58.279Z,98569.22
2023-01-21T20:04:24.922Z,98579.66
2023-01-21T20:06:51.504Z,98581.25
2023-01-21T20:09:19.246Z,98580.75
2023-01-21T20:11:45.973Z,98580.50
2023-01-21T20:14:12.665Z,98580.06
2023-01-21T20:16:44.289Z,98590.25
2023-01-21T20:19:15.805Z,98582.06
2023-01-21T20:21:55.026Z,98577.72
2023-01-21T20:24:30.096Z,98588.06
2023-01-21T20:26:57.099Z,98589.91
2023-01-21T20:29:23.737Z,98594.31
2023-01-21T20:31:51.926Z,98594.00
2023-01-21T20:34:18.585Z,98596.38
2023-01-21T20:36:48.415Z,98602.94
2023-01-21T20:39:15.126Z,98603.75
2023-01-21T20:41:43.390Z,98607.22
2023-01-21T20:44:10.522Z,98607.41
2023-01-21T20:46:37.109Z,98613.25
2023-01-21T20:49:03.802Z,98621.75
2023-01-21T20:51:30.511Z,98621.09
2023-01-21T20:53:57.166Z,98623.44
2023-01-21T20:56:33.118Z,98615.09
2023-01-21T20:58:59.707Z,98613.50
2023-01-21T21:01:27.055Z,98622.00
2023-01-21T21:03:53.750Z,98630.44
2023-01-21T21:06:22.093Z,98624.53
2023-01-21T21:08:49.383Z,98636.47
2023-01-21T21:11:16.741Z,98632.34
2023-01-21T21:13:43.711Z,98632.84
2023-01-21T21:16:22.195Z,98650.13
2023-01-21T21:18:48.973Z,98650.56
2023-01-21T21:21:16.241Z,98656.22
2023-01-21T21:23:46.565Z,98652.47
2023-01-21T21:26:19.982Z,98666.22
2023-01-21T21:28:46.900Z,98660.31
2023-01-21T21:31:14.518Z,98665.59
2023-01-21T21:33:41.218Z,98662.56
2023-01-21T21:36:14.766Z,98668.22
2023-01-21T21:38:41.465Z,98661.22
2023-01-21T21:41:32.829Z,98660.47
2023-01-21T21:43:59.547Z,98667.31
2023-01-21T21:46:44.721Z,98663.75
2023-01-21T21:49:11.683Z,98677.81
2023-01-21T21:51:38.352Z,98670.97
2023-01-21T21:54:07.767Z,98670.75
2023-01-21T21:56:35.147Z,98670.97
2023-01-21T21:59:01.755Z,98674.38
2023-01-21T22:01:30.492Z,98674.22
2023-01-21T22:04:00.391Z,98680.97
2023-01-21T22:06:26.994Z,98684.41
2023-01-21T22:08:54.396Z,98684.50
2023-01-21T22:11:21.941Z,98690.28
2023-01-21T22:13:50.240Z,98699.53
2023-01-21T22:16:27.751Z,98692.41
2023-01-21T22:18:54.730Z,98689.66
2023-01-21T22:21:23.159Z,98690.50
2023-01-21T22:23:50.083Z,98695.81
2023-01-21T22:26:18.191Z,98691.66
2023-01-21T22:28:44.897Z,98692.56
2023-01-21T22:31:16.639Z,98686.91
2023-01-21T22:33:43.462Z,98695.13
2023-01-21T22:36:11.944Z,98691.66
2023-01-21T22:38:40.613Z,98700.63
2023-01-21T22:41:07.541Z,98702.75
2023-01-21T22:43:34.208Z,98705.66
2023-01-21T22:46:01.073Z,98700.66
2023-01-21T22:48:27.764Z,98708.97
2023-01-21T22:50:55.822Z,98698.81
2023-01-21T22:53:22.817Z,98702.59
2023-01-21T22:55:56.321Z,98706.84
2023-01-21T22:58:23.381Z,98709.44
2023-01-21T23:00:50.188Z,98719.31
2023-01-21T23:03:16.931Z,98716.84
2023-01-21T23:05:43.620Z,98707.00
2023-01-21T23:08:10.620Z,98722.69
2023-01-21T23:10:37.201Z,98719.88
2023-01-21T23:13:03.803Z,98720.09
2023-01-21T23:15:30.527Z,98717.34
2023-01-21T23:17:57.144Z,98719.59
2023-01-21T23:20:28.748Z,98722.06
2023-01-21T23:22:56.457Z,98726.72
2023-01-21T23:25:23.043Z,98734.53
2023-01-21T23:27:49.750Z,98729.38
2023-01-21T23:30:16.956Z,98731.88
2023-01-21T23:32:43.664Z,98725.19
2023-01-21T23:35:10.239Z,98729.19
2023-01-21T23:37:37.495Z,98729.19
2023-01-21T23:40:05.270Z,98726.84
2023-01-21T23:42:32.213Z,98721.31
2023-01-21T23:44:59.022Z,98731.03
2023-01-21T23:47:25.706Z,98738.09
2023-01-21T23:49:52.274Z,98734.03
2023-01-21T23:52:18.870Z,98737.34
2023-01-21T23:54:45.534Z,98737.88
2023-01-21T23:57:12.283Z,98743.22
2023-01-21T23:59:38.936Z,98733.03
